Terminal Aerodrome Forecast
Issued by NWS Bismarck, ND

Home | Current Version | Previous Version | Graphics & Text | Print | Product List | Glossary On
Versions: 1 2 3 4 5 6 7 8 9 10 11 12 13 14 15 16 17 18 19 20
062
FTUS43 KBIS 081738
TAFISN
TAF
KISN 081738Z 0818/0918 30015G20KT P6SM SCT120 BKN150
     FM090100 30008KT P6SM FEW120
     FM090600 28005KT P6SM SKC
     FM091200 25007KT P6SM FEW250=

USA.gov is the U.S. government's official web portal to all federal, state and local government web resources and services.